sensor_id;sensor_type;location;lat;lon;timestamp;temperature;humidity
5806;DHT22;2929;50.810;8.342;2023-04-26T00:00:09;1.50;99.90
5806;DHT22;2929;50.810;8.342;2023-04-26T00:02:38;1.50;99.90
5806;DHT22;2929;50.810;8.342;2023-04-26T00:05:06;1.40;99.90
5806;DHT22;2929;50.810;8.342;2023-04-26T00:07:33;1.30;99.90
5806;DHT22;2929;50.810;8.342;2023-04-26T00:10:04;1.20;99.90
5806;DHT22;2929;50.810;8.342;2023-04-26T00:12:32;1.30;99.90
5806;DHT22;2929;50.810;8.342;2023-04-26T00:14:59;1.30;99.90
5806;DHT22;2929;50.810;8.342;2023-04-26T00:17:26;1.10;99.90
5806;DHT22;2929;50.810;8.342;2023-04-26T00:19:53;1.10;99.90
5806;DHT22;2929;50.810;8.342;2023-04-26T00:22:22;1.10;99.90
5806;DHT22;2929;50.810;8.342;2023-04-26T00:24:49;1.10;99.90
5806;DHT22;2929;50.810;8.342;2023-04-26T00:27:18;1.10;99.90
5806;DHT22;2929;50.810;8.342;2023-04-26T00:29:45;1.00;99.90
5806;DHT22;2929;50.810;8.342;2023-04-26T00:32:12;1.00;99.90
5806;DHT22;2929;50.810;8.342;2023-04-26T00:34:39;1.00;99.90
5806;DHT22;2929;50.810;8.342;2023-04-26T00:37:07;1.10;99.90
5806;DHT22;2929;50.810;8.342;2023-04-26T00:39:34;1.10;99.90
5806;DHT22;2929;50.810;8.342;2023-04-26T00:42:01;1.20;99.90
5806;DHT22;2929;50.810;8.342;2023-04-26T00:44:29;1.20;99.90
5806;DHT22;2929;50.810;8.342;2023-04-26T00:46:57;1.10;99.90
5806;DHT22;2929;50.810;8.342;2023-04-26T00:49:24;1.00;99.90
5806;DHT22;2929;50.810;8.342;2023-04-26T00:51:52;1.00;99.90
5806;DHT22;2929;50.810;8.342;2023-04-26T00:54:20;1.10;99.90
5806;DHT22;2929;50.810;8.342;2023-04-26T00:56:48;1.10;99.90
5806;DHT22;2929;50.810;8.342;2023-04-26T00:59:18;1.00;99.90
5806;DHT22;2929;50.810;8.342;2023-04-26T01:01:47;0.90;99.90
5806;DHT22;2929;50.810;8.342;2023-04-26T01:04:14;0.90;99.90
5806;DHT22;2929;50.810;8.342;2023-04-26T01:06:42;0.90;99.90
5806;DHT22;2929;50.810;8.342;2023-04-26T01:09:10;0.90;99.90
5806;DHT22;2929;50.810;8.342;2023-04-26T01:11:41;0.90;99.90
5806;DHT22;2929;50.810;8.342;2023-04-26T01:14:09;0.90;99.90
5806;DHT22;2929;50.810;8.342;2023-04-26T01:16:37;0.90;99.90
5806;DHT22;2929;50.810;8.342;2023-04-26T01:19:10;0.80;99.90
5806;DHT22;2929;50.810;8.342;2023-04-26T01:21:38;0.80;99.90
5806;DHT22;2929;50.810;8.342;2023-04-26T01:24:08;0.70;99.90
5806;DHT22;2929;50.810;8.342;2023-04-26T01:26:37;0.60;99.90
5806;DHT22;2929;50.810;8.342;2023-04-26T01:29:14;0.50;99.90
5806;DHT22;2929;50.810;8.342;2023-04-26T01:31:42;0.50;99.90
5806;DHT22;2929;50.810;8.342;2023-04-26T01:34:09;0.50;99.90
5806;DHT22;2929;50.810;8.342;2023-04-26T01:36:36;0.50;99.90
5806;DHT22;2929;50.810;8.342;2023-04-26T01:39:03;0.60;99.90
5806;DHT22;2929;50.810;8.342;2023-04-26T01:41:32;0.50;99.90
5806;DHT22;2929;50.810;8.342;2023-04-26T01:43:59;0.60;99.90
5806;DHT22;2929;50.810;8.342;2023-04-26T01:46:27;0.70;99.90
5806;DHT22;2929;50.810;8.342;2023-04-26T01:48:54;0.60;99.90
5806;DHT22;2929;50.810;8.342;2023-04-26T01:51:23;0.60;99.90
5806;DHT22;2929;50.810;8.342;2023-04-26T01:53:50;0.50;99.90
5806;DHT22;2929;50.810;8.342;2023-04-26T01:56:17;0.50;99.90
5806;DHT22;2929;50.810;8.342;2023-04-26T01:58:45;0.60;99.90
5806;DHT22;2929;50.810;8.342;2023-04-26T02:01:12;0.60;99.90
5806;DHT22;2929;50.810;8.342;2023-04-26T02:03:40;0.40;99.90
5806;DHT22;2929;50.810;8.342;2023-04-26T02:06:07;0.30;99.90
5806;DHT22;2929;50.810;8.342;2023-04-26T02:08:34;0.30;99.90
5806;DHT22;2929;50.810;8.342;2023-04-26T02:11:01;0.10;99.90
5806;DHT22;2929;50.810;8.342;2023-04-26T02:13:28;0.10;99.90
5806;DHT22;2929;50.810;8.342;2023-04-26T02:15:57;0.10;99.90
5806;DHT22;2929;50.810;8.342;2023-04-26T02:18:24;0.00;99.90
5806;DHT22;2929;50.810;8.342;2023-04-26T02:20:52;0.00;99.90
5806;DHT22;2929;50.810;8.342;2023-04-26T02:23:19;-0.10;99.90
5806;DHT22;2929;50.810;8.342;2023-04-26T02:25:47;0.00;99.90
5806;DHT22;2929;50.810;8.342;2023-04-26T02:28:16;0.00;99.90
5806;DHT22;2929;50.810;8.342;2023-04-26T02:30:43;0.00;99.90
5806;DHT22;2929;50.810;8.342;2023-04-26T02:33:11;0.00;99.90
5806;DHT22;2929;50.810;8.342;2023-04-26T02:35:38;0.10;99.90
5806;DHT22;2929;50.810;8.342;2023-04-26T02:38:06;0.00;99.90
5806;DHT22;2929;50.810;8.342;2023-04-26T02:40:33;0.00;99.90
5806;DHT22;2929;50.810;8.342;2023-04-26T02:43:00;0.00;99.90
5806;DHT22;2929;50.810;8.342;2023-04-26T02:45:27;-0.10;99.90
5806;DHT22;2929;50.810;8.342;2023-04-26T02:47:54;-0.10;99.90
5806;DHT22;2929;50.810;8.342;2023-04-26T02:50:22;-0.10;99.90
5806;DHT22;2929;50.810;8.342;2023-04-26T02:52:50;-0.20;99.90
5806;DHT22;2929;50.810;8.342;2023-04-26T02:55:17;-0.30;99.90
5806;DHT22;2929;50.810;8.342;2023-04-26T02:57:44;-0.30;99.90
5806;DHT22;2929;50.810;8.342;2023-04-26T03:00:12;-0.20;99.90
5806;DHT22;2929;50.810;8.342;2023-04-26T03:02:39;-0.20;99.90
5806;DHT22;2929;50.810;8.342;2023-04-26T03:05:07;-0.20;99.90
5806;DHT22;2929;50.810;8.342;2023-04-26T03:07:36;-0.30;99.90
5806;DHT22;2929;50.810;8.342;2023-04-26T03:10:04;-0.40;99.90
5806;DHT22;2929;50.810;8.342;2023-04-26T03:12:33;-0.50;99.90
5806;DHT22;2929;50.810;8.342;2023-04-26T03:15:01;-0.40;99.90
5806;DHT22;2929;50.810;8.342;2023-04-26T03:17:29;-0.40;99.90
5806;DHT22;2929;50.810;8.342;2023-04-26T03:19:57;-0.40;99.90
5806;DHT22;2929;50.810;8.342;2023-04-26T03:22:24;-0.50;99.90
5806;DHT22;2929;50.810;8.342;2023-04-26T03:24:52;-0.50;99.90
5806;DHT22;2929;50.810;8.342;2023-04-26T03:27:20;-0.50;99.90
5806;DHT22;2929;50.810;8.342;2023-04-26T03:29:47;-0.40;99.90
5806;DHT22;2929;50.810;8.342;2023-04-26T03:32:14;-0.40;99.90
5806;DHT22;2929;50.810;8.342;2023-04-26T03:34:41;-0.50;99.90
5806;DHT22;2929;50.810;8.342;2023-04-26T03:37:08;-0.50;99.90
5806;DHT22;2929;50.810;8.342;2023-04-26T03:39:37;-0.40;99.90
5806;DHT22;2929;50.810;8.342;2023-04-26T03:42:06;-0.50;99.90
5806;DHT22;2929;50.810;8.342;2023-04-26T03:44:34;-0.50;99.90
5806;DHT22;2929;50.810;8.342;2023-04-26T03:47:01;-0.60;99.90
5806;DHT22;2929;50.810;8.342;2023-04-26T03:49:31;-0.60;99.90
5806;DHT22;2929;50.810;8.342;2023-04-26T03:51:58;-0.70;99.90
5806;DHT22;2929;50.810;8.342;2023-04-26T03:54:25;-0.70;99.90
5806;DHT22;2929;50.810;8.342;2023-04-26T03:56:52;-0.70;99.90
5806;DHT22;2929;50.810;8.342;2023-04-26T03:59:21;-0.70;99.90
5806;DHT22;2929;50.810;8.342;2023-04-26T04:01:48;-0.70;99.90
5806;DHT22;2929;50.810;8.342;2023-04-26T04:04:15;-0.70;99.90
5806;DHT22;2929;50.810;8.342;2023-04-26T04:06:43;-0.70;99.90
5806;DHT22;2929;50.810;8.342;2023-04-26T04:09:11;-0.60;99.90
5806;DHT22;2929;50.810;8.342;2023-04-26T04:11:38;-0.60;99.90
5806;DHT22;2929;50.810;8.342;2023-04-26T04:14:05;-0.70;99.90
5806;DHT22;2929;50.810;8.342;2023-04-26T04:16:34;-0.70;99.90
5806;DHT22;2929;50.810;8.342;2023-04-26T04:19:01;-0.70;99.90
5806;DHT22;2929;50.810;8.342;2023-04-26T04:21:28;-0.70;99.90
5806;DHT22;2929;50.810;8.342;2023-04-26T04:23:57;-0.70;99.90
5806;DHT22;2929;50.810;8.342;2023-04-26T04:26:24;-0.60;99.90
5806;DHT22;2929;50.810;8.342;2023-04-26T04:28:52;-0.60;99.90
5806;DHT22;2929;50.810;8.342;2023-04-26T04:31:20;-0.50;99.90
5806;DHT22;2929;50.810;8.342;2023-04-26T04:33:49;-0.50;99.90
5806;DHT22;2929;50.810;8.342;2023-04-26T04:36:16;-0.50;99.90
5806;DHT22;2929;50.810;8.342;2023-04-26T04:38:44;-0.50;99.90
5806;DHT22;2929;50.810;8.342;2023-04-26T04:41:14;-0.60;99.90
5806;DHT22;2929;50.810;8.342;2023-04-26T04:43:41;-0.60;99.90
5806;DHT22;2929;50.810;8.342;2023-04-26T04:46:08;-0.60;99.90
5806;DHT22;2929;50.810;8.342;2023-04-26T04:48:36;-0.60;99.90
5806;DHT22;2929;50.810;8.342;2023-04-26T04:51:05;-0.60;99.90
5806;DHT22;2929;50.810;8.342;2023-04-26T04:53:34;-0.70;99.90
5806;DHT22;2929;50.810;8.342;2023-04-26T04:56:01;-0.70;99.90
5806;DHT22;2929;50.810;8.342;2023-04-26T04:58:29;-0.70;99.90
5806;DHT22;2929;50.810;8.342;2023-04-26T05:00:56;-0.70;99.90
5806;DHT22;2929;50.810;8.342;2023-04-26T05:03:28;-0.70;99.90
5806;DHT22;2929;50.810;8.342;2023-04-26T05:05:56;-0.70;99.90
5806;DHT22;2929;50.810;8.342;2023-04-26T05:08:25;-0.70;99.90
5806;DHT22;2929;50.810;8.342;2023-04-26T05:10:54;-0.80;99.90
5806;DHT22;2929;50.810;8.342;2023-04-26T05:13:22;-0.80;99.90
5806;DHT22;2929;50.810;8.342;2023-04-26T05:15:49;-0.70;99.90
5806;DHT22;2929;50.810;8.342;2023-04-26T05:18:16;-0.70;99.90
5806;DHT22;2929;50.810;8.342;2023-04-26T05:20:43;-0.60;99.90
5806;DHT22;2929;50.810;8.342;2023-04-26T05:23:10;-0.60;99.90
5806;DHT22;2929;50.810;8.342;2023-04-26T05:25:39;-0.60;99.90
5806;DHT22;2929;50.810;8.342;2023-04-26T05:28:26;-0.60;99.90
5806;DHT22;2929;50.810;8.342;2023-04-26T05:31:16;-0.60;99.90
5806;DHT22;2929;50.810;8.342;2023-04-26T05:34:18;-0.50;99.90
5806;DHT22;2929;50.810;8.342;2023-04-26T05:36:49;-0.40;99.90
5806;DHT22;2929;50.810;8.342;2023-04-26T05:39:17;-0.30;99.90
5806;DHT22;2929;50.810;8.342;2023-04-26T05:41:47;-0.10;99.90
5806;DHT22;2929;50.810;8.342;2023-04-26T05:44:14;-0.10;99.90
5806;DHT22;2929;50.810;8.342;2023-04-26T05:46:45;0.00;99.90
5806;DHT22;2929;50.810;8.342;2023-04-26T05:49:12;0.10;99.90
5806;DHT22;2929;50.810;8.342;2023-04-26T05:51:39;0.20;99.90
5806;DHT22;2929;50.810;8.342;2023-04-26T05:54:07;0.20;99.90
5806;DHT22;2929;50.810;8.342;2023-04-26T05:56:34;0.20;99.90
5806;DHT22;2929;50.810;8.342;2023-04-26T05:59:02;0.30;99.90
5806;DHT22;2929;50.810;8.342;2023-04-26T06:01:32;0.40;99.90
5806;DHT22;2929;50.810;8.342;2023-04-26T06:04:00;0.40;99.90
5806;DHT22;2929;50.810;8.342;2023-04-26T06:06:31;0.50;99.90
5806;DHT22;2929;50.810;8.342;2023-04-26T06:08:58;0.60;99.90
5806;DHT22;2929;50.810;8.342;2023-04-26T06:11:26;0.70;99.90
5806;DHT22;2929;50.810;8.342;2023-04-26T06:13:53;0.80;99.90
5806;DHT22;2929;50.810;8.342;2023-04-26T06:16:22;0.90;99.90
5806;DHT22;2929;50.810;8.342;2023-04-26T06:18:49;1.00;99.90
5806;DHT22;2929;50.810;8.342;2023-04-26T06:21:17;1.00;99.90
5806;DHT22;2929;50.810;8.342;2023-04-26T06:23:44;1.00;99.90
5806;DHT22;2929;50.810;8.342;2023-04-26T06:26:11;1.00;99.90
5806;DHT22;2929;50.810;8.342;2023-04-26T06:28:38;1.10;99.90
5806;DHT22;2929;50.810;8.342;2023-04-26T06:31:06;1.10;99.90
5806;DHT22;2929;50.810;8.342;2023-04-26T06:33:36;1.20;99.90
5806;DHT22;2929;50.810;8.342;2023-04-26T06:36:03;1.30;99.90
5806;DHT22;2929;50.810;8.342;2023-04-26T06:38:31;1.40;99.90
5806;DHT22;2929;50.810;8.342;2023-04-26T06:40:58;1.50;99.90
5806;DHT22;2929;50.810;8.342;2023-04-26T06:43:25;1.60;99.90
5806;DHT22;2929;50.810;8.342;2023-04-26T06:46:01;1.80;99.90
5806;DHT22;2929;50.810;8.342;2023-04-26T06:48:29;1.90;99.90
5806;DHT22;2929;50.810;8.342;2023-04-26T06:50:57;1.90;99.90
5806;DHT22;2929;50.810;8.342;2023-04-26T06:53:24;2.10;99.90
5806;DHT22;2929;50.810;8.342;2023-04-26T06:55:52;2.30;99.90
5806;DHT22;2929;50.810;8.342;2023-04-26T06:58:22;2.40;99.90
5806;DHT22;2929;50.810;8.342;2023-04-26T07:00:49;2.70;99.90
5806;DHT22;2929;50.810;8.342;2023-04-26T07:03:16;2.90;99.90
5806;DHT22;2929;50.810;8.342;2023-04-26T07:05:44;3.10;99.90
5806;DHT22;2929;50.810;8.342;2023-04-26T07:08:12;3.20;99.90
5806;DHT22;2929;50.810;8.342;2023-04-26T07:10:40;3.30;99.90
5806;DHT22;2929;50.810;8.342;2023-04-26T07:13:07;3.60;99.90
5806;DHT22;2929;50.810;8.342;2023-04-26T07:15:34;3.80;99.90
5806;DHT22;2929;50.810;8.342;2023-04-26T07:18:03;4.00;99.90
5806;DHT22;2929;50.810;8.342;2023-04-26T07:20:30;4.30;99.90
5806;DHT22;2929;50.810;8.342;2023-04-26T07:22:57;4.30;99.90
5806;DHT22;2929;50.810;8.342;2023-04-26T07:25:25;4.40;99.90
5806;DHT22;2929;50.810;8.342;2023-04-26T07:27:52;4.20;99.90
5806;DHT22;2929;50.810;8.342;2023-04-26T07:30:20;4.20;99.90
5806;DHT22;2929;50.810;8.342;2023-04-26T07:32:47;4.20;99.90
5806;DHT22;2929;50.810;8.342;2023-04-26T07:35:15;4.20;99.90
5806;DHT22;2929;50.810;8.342;2023-04-26T07:37:42;4.20;99.90
5806;DHT22;2929;50.810;8.342;2023-04-26T07:40:11;4.40;99.90
5806;DHT22;2929;50.810;8.342;2023-04-26T07:42:40;4.70;99.90
5806;DHT22;2929;50.810;8.342;2023-04-26T07:45:08;4.70;99.90
5806;DHT22;2929;50.810;8.342;2023-04-26T07:47:35;4.80;99.90
5806;DHT22;2929;50.810;8.342;2023-04-26T07:50:03;4.90;99.90
5806;DHT22;2929;50.810;8.342;2023-04-26T07:52:30;4.80;99.90
5806;DHT22;2929;50.810;8.342;2023-04-26T07:54:57;4.80;99.90
5806;DHT22;2929;50.810;8.342;2023-04-26T07:57:24;5.10;99.90
5806;DHT22;2929;50.810;8.342;2023-04-26T07:59:53;5.10;99.90
5806;DHT22;2929;50.810;8.342;2023-04-26T08:02:21;5.00;99.90
5806;DHT22;2929;50.810;8.342;2023-04-26T08:04:49;5.20;99.90
5806;DHT22;2929;50.810;8.342;2023-04-26T08:07:17;5.10;99.90
5806;DHT22;2929;50.810;8.342;2023-04-26T08:09:44;5.20;99.90
5806;DHT22;2929;50.810;8.342;2023-04-26T08:12:11;5.30;99.90
5806;DHT22;2929;50.810;8.342;2023-04-26T08:14:39;5.40;99.90
5806;DHT22;2929;50.810;8.342;2023-04-26T08:17:07;5.50;99.90
5806;DHT22;2929;50.810;8.342;2023-04-26T08:19:35;5.40;99.90
5806;DHT22;2929;50.810;8.342;2023-04-26T08:22:02;5.30;99.90
5806;DHT22;2929;50.810;8.342;2023-04-26T08:24:30;5.40;99.90
5806;DHT22;2929;50.810;8.342;2023-04-26T08:26:57;5.60;99.90
5806;DHT22;2929;50.810;8.342;2023-04-26T08:29:26;5.90;99.90
5806;DHT22;2929;50.810;8.342;2023-04-26T08:31:53;6.20;99.90
5806;DHT22;2929;50.810;8.342;2023-04-26T08:34:22;6.20;99.90
5806;DHT22;2929;50.810;8.342;2023-04-26T08:36:49;6.10;99.90
5806;DHT22;2929;50.810;8.342;2023-04-26T08:39:17;6.00;99.90
5806;DHT22;2929;50.810;8.342;2023-04-26T08:41:49;6.00;99.90
5806;DHT22;2929;50.810;8.342;2023-04-26T08:44:17;5.90;99.90
5806;DHT22;2929;50.810;8.342;2023-04-26T08:46:54;6.10;99.90
5806;DHT22;2929;50.810;8.342;2023-04-26T08:49:38;6.30;99.90
5806;DHT22;2929;50.810;8.342;2023-04-26T08:52:09;6.40;99.90
5806;DHT22;2929;50.810;8.342;2023-04-26T08:54:38;6.40;99.90
5806;DHT22;2929;50.810;8.342;2023-04-26T08:57:06;6.30;99.90
5806;DHT22;2929;50.810;8.342;2023-04-26T08:59:35;6.40;99.90
5806;DHT22;2929;50.810;8.342;2023-04-26T09:02:04;6.60;99.90
5806;DHT22;2929;50.810;8.342;2023-04-26T09:04:33;6.80;99.90
5806;DHT22;2929;50.810;8.342;2023-04-26T09:07:02;7.00;99.90
5806;DHT22;2929;50.810;8.342;2023-04-26T09:09:34;7.10;99.90
5806;DHT22;2929;50.810;8.342;2023-04-26T09:12:03;7.20;99.90
5806;DHT22;2929;50.810;8.342;2023-04-26T09:14:30;7.00;99.90
5806;DHT22;2929;50.810;8.342;2023-04-26T09:16:57;7.00;99.90
5806;DHT22;2929;50.810;8.342;2023-04-26T09:19:36;7.00;99.90
5806;DHT22;2929;50.810;8.342;2023-04-26T09:22:04;7.00;99.90
5806;DHT22;2929;50.810;8.342;2023-04-26T09:24:46;7.10;99.90
5806;DHT22;2929;50.810;8.342;2023-04-26T09:27:14;7.20;99.90
5806;DHT22;2929;50.810;8.342;2023-04-26T09:29:56;7.20;99.90
5806;DHT22;2929;50.810;8.342;2023-04-26T09:32:24;7.00;99.90
5806;DHT22;2929;50.810;8.342;2023-04-26T09:34:54;6.90;99.90
5806;DHT22;2929;50.810;8.342;2023-04-26T09:37:21;6.90;99.90
5806;DHT22;2929;50.810;8.342;2023-04-26T09:39:48;6.80;99.90
5806;DHT22;2929;50.810;8.342;2023-04-26T09:42:16;6.90;99.90
5806;DHT22;2929;50.810;8.342;2023-04-26T09:44:45;6.90;99.90
5806;DHT22;2929;50.810;8.342;2023-04-26T09:47:13;6.80;99.90
5806;DHT22;2929;50.810;8.342;2023-04-26T09:49:44;6.70;99.90
5806;DHT22;2929;50.810;8.342;2023-04-26T09:52:15;6.80;99.90
5806;DHT22;2929;50.810;8.342;2023-04-26T09:54:46;6.90;99.90
5806;DHT22;2929;50.810;8.342;2023-04-26T09:57:14;7.10;99.90
5806;DHT22;2929;50.810;8.342;2023-04-26T09:59:43;7.20;99.90
5806;DHT22;2929;50.810;8.342;2023-04-26T10:02:17;7.40;99.90
5806;DHT22;2929;50.810;8.342;2023-04-26T10:04:46;7.50;99.90
5806;DHT22;2929;50.810;8.342;2023-04-26T10:07:17;7.60;99.90
5806;DHT22;2929;50.810;8.342;2023-04-26T10:09:44;7.50;99.90
5806;DHT22;2929;50.810;8.342;2023-04-26T10:12:13;7.70;99.90
5806;DHT22;2929;50.810;8.342;2023-04-26T10:14:41;7.80;99.90
5806;DHT22;2929;50.810;8.342;2023-04-26T10:17:11;7.80;99.90
5806;DHT22;2929;50.810;8.342;2023-04-26T10:19:40;7.70;99.90
5806;DHT22;2929;50.810;8.342;2023-04-26T10:22:15;7.60;99.90
5806;DHT22;2929;50.810;8.342;2023-04-26T10:24:43;7.50;99.90
5806;DHT22;2929;50.810;8.342;2023-04-26T10:27:10;7.50;99.90
5806;DHT22;2929;50.810;8.342;2023-04-26T10:30:07;7.40;99.90
5806;DHT22;2929;50.810;8.342;2023-04-26T10:33:11;7.40;99.90
5806;DHT22;2929;50.810;8.342;2023-04-26T10:36:01;7.70;99.90
5806;DHT22;2929;50.810;8.342;2023-04-26T10:38:31;7.70;99.90
5806;DHT22;2929;50.810;8.342;2023-04-26T10:41:27;7.60;99.90
5806;DHT22;2929;50.810;8.342;2023-04-26T10:43:55;7.50;99.90
5806;DHT22;2929;50.810;8.342;2023-04-26T10:46:36;7.60;99.90
5806;DHT22;2929;50.810;8.342;2023-04-26T10:49:14;8.10;99.90
5806;DHT22;2929;50.810;8.342;2023-04-26T10:52:09;8.30;99.90
5806;DHT22;2929;50.810;8.342;2023-04-26T10:54:59;8.00;99.90
5806;DHT22;2929;50.810;8.342;2023-04-26T10:57:47;8.10;99.90
5806;DHT22;2929;50.810;8.342;2023-04-26T11:00:32;8.20;99.90
5806;DHT22;2929;50.810;8.342;2023-04-26T11:03:04;8.20;99.90
5806;DHT22;2929;50.810;8.342;2023-04-26T11:05:40;8.10;99.90
5806;DHT22;2929;50.810;8.342;2023-04-26T11:08:15;8.00;99.90
5806;DHT22;2929;50.810;8.342;2023-04-26T11:10:45;7.90;99.90
5806;DHT22;2929;50.810;8.342;2023-04-26T11:13:16;7.80;99.90
5806;DHT22;2929;50.810;8.342;2023-04-26T11:15:44;7.70;99.90
5806;DHT22;2929;50.810;8.342;2023-04-26T11:18:12;7.90;99.90
5806;DHT22;2929;50.810;8.342;2023-04-26T11:20:39;8.00;99.90
5806;DHT22;2929;50.810;8.342;2023-04-26T11:23:07;8.30;99.90
5806;DHT22;2929;50.810;8.342;2023-04-26T11:25:38;8.40;99.90
5806;DHT22;2929;50.810;8.342;2023-04-26T11:28:06;9.10;99.90
5806;DHT22;2929;50.810;8.342;2023-04-26T11:30:33;9.90;99.90
5806;DHT22;2929;50.810;8.342;2023-04-26T11:33:01;10.40;99.90
5806;DHT22;2929;50.810;8.342;2023-04-26T11:35:32;10.00;99.90
5806;DHT22;2929;50.810;8.342;2023-04-26T11:38:03;9.80;99.90
5806;DHT22;2929;50.810;8.342;2023-04-26T11:40:32;9.50;99.90
5806;DHT22;2929;50.810;8.342;2023-04-26T11:43:01;9.50;99.90
5806;DHT22;2929;50.810;8.342;2023-04-26T11:45:32;9.30;99.90
5806;DHT22;2929;50.810;8.342;2023-04-26T11:48:01;9.20;99.90
5806;DHT22;2929;50.810;8.342;2023-04-26T11:50:30;9.30;99.90
5806;DHT22;2929;50.810;8.342;2023-04-26T11:52:59;9.20;99.90
5806;DHT22;2929;50.810;8.342;2023-04-26T11:55:27;9.40;99.30
5806;DHT22;2929;50.810;8.342;2023-04-26T11:57:55;9.50;99.90
5806;DHT22;2929;50.810;8.342;2023-04-26T12:00:24;9.70;99.90
5806;DHT22;2929;50.810;8.342;2023-04-26T12:02:53;9.70;98.70
5806;DHT22;2929;50.810;8.342;2023-04-26T12:05:23;9.80;97.80
5806;DHT22;2929;50.810;8.342;2023-04-26T12:07:51;9.70;97.00
5806;DHT22;2929;50.810;8.342;2023-04-26T12:10:23;9.20;96.70
5806;DHT22;2929;50.810;8.342;2023-04-26T12:12:52;9.20;97.40
5806;DHT22;2929;50.810;8.342;2023-04-26T12:15:23;9.70;98.10
5806;DHT22;2929;50.810;8.342;2023-04-26T12:17:57;10.00;96.20
5806;DHT22;2929;50.810;8.342;2023-04-26T12:20:29;9.90;95.10
5806;DHT22;2929;50.810;8.342;2023-04-26T12:23:01;9.80;96.20
5806;DHT22;2929;50.810;8.342;2023-04-26T12:25:29;9.60;95.80
5806;DHT22;2929;50.810;8.342;2023-04-26T12:27:57;10.50;94.60
5806;DHT22;2929;50.810;8.342;2023-04-26T12:30:25;10.90;93.70
5806;DHT22;2929;50.810;8.342;2023-04-26T12:33:02;11.00;94.00
5806;DHT22;2929;50.810;8.342;2023-04-26T12:35:29;10.80;91.30
5806;DHT22;2929;50.810;8.342;2023-04-26T12:37:57;10.60;91.90
5806;DHT22;2929;50.810;8.342;2023-04-26T12:40:26;10.80;93.10
5806;DHT22;2929;50.810;8.342;2023-04-26T12:42:54;10.50;92.20
5806;DHT22;2929;50.810;8.342;2023-04-26T12:45:22;10.70;92.90
5806;DHT22;2929;50.810;8.342;2023-04-26T12:47:50;10.60;91.60
5806;DHT22;2929;50.810;8.342;2023-04-26T12:50:19;10.60;93.00
5806;DHT22;2929;50.810;8.342;2023-04-26T12:52:47;10.50;91.80
5806;DHT22;2929;50.810;8.342;2023-04-26T12:55:15;10.40;92.30
5806;DHT22;2929;50.810;8.342;2023-04-26T12:57:43;10.80;93.20
5806;DHT22;2929;50.810;8.342;2023-04-26T13:00:12;11.10;92.80
5806;DHT22;2929;50.810;8.342;2023-04-26T13:02:40;11.20;91.70
5806;DHT22;2929;50.810;8.342;2023-04-26T13:05:08;11.10;91.90
5806;DHT22;2929;50.810;8.342;2023-04-26T13:07:39;11.40;92.00
5806;DHT22;2929;50.810;8.342;2023-04-26T13:10:07;12.10;91.40
5806;DHT22;2929;50.810;8.342;2023-04-26T13:12:36;12.60;90.10
5806;DHT22;2929;50.810;8.342;2023-04-26T13:15:05;12.70;90.40
5806;DHT22;2929;50.810;8.342;2023-04-26T13:17:33;13.10;89.70
5806;DHT22;2929;50.810;8.342;2023-04-26T13:20:02;13.70;86.50
5806;DHT22;2929;50.810;8.342;2023-04-26T13:22:30;13.50;81.40
5806;DHT22;2929;50.810;8.342;2023-04-26T13:24:59;13.70;83.00
5806;DHT22;2929;50.810;8.342;2023-04-26T13:27:26;14.10;84.80
5806;DHT22;2929;50.810;8.342;2023-04-26T13:29:54;13.60;78.20
5806;DHT22;2929;50.810;8.342;2023-04-26T13:32:21;13.50;81.80
5806;DHT22;2929;50.810;8.342;2023-04-26T13:34:49;12.80;80.60
5806;DHT22;2929;50.810;8.342;2023-04-26T13:37:16;12.60;85.10
5806;DHT22;2929;50.810;8.342;2023-04-26T13:39:46;12.40;86.40
5806;DHT22;2929;50.810;8.342;2023-04-26T13:42:15;12.50;86.10
5806;DHT22;2929;50.810;8.342;2023-04-26T13:44:42;12.60;84.40
5806;DHT22;2929;50.810;8.342;2023-04-26T13:47:10;12.30;86.00
5806;DHT22;2929;50.810;8.342;2023-04-26T13:49:37;12.00;87.00
5806;DHT22;2929;50.810;8.342;2023-04-26T13:52:06;11.70;87.00
5806;DHT22;2929;50.810;8.342;2023-04-26T13:54:33;11.90;90.30
5806;DHT22;2929;50.810;8.342;2023-04-26T13:57:02;12.00;85.70
5806;DHT22;2929;50.810;8.342;2023-04-26T13:59:30;12.00;86.70
5806;DHT22;2929;50.810;8.342;2023-04-26T14:01:58;12.20;86.10
5806;DHT22;2929;50.810;8.342;2023-04-26T14:04:25;12.40;85.60
5806;DHT22;2929;50.810;8.342;2023-04-26T14:06:52;12.80;83.80
5806;DHT22;2929;50.810;8.342;2023-04-26T14:09:20;13.00;84.10
5806;DHT22;2929;50.810;8.342;2023-04-26T14:11:47;12.80;80.60
5806;DHT22;2929;50.810;8.342;2023-04-26T14:14:14;12.80;84.20
5806;DHT22;2929;50.810;8.342;2023-04-26T14:16:43;12.80;83.40
5806;DHT22;2929;50.810;8.342;2023-04-26T14:19:10;12.70;81.20
5806;DHT22;2929;50.810;8.342;2023-04-26T14:21:39;12.60;80.20
5806;DHT22;2929;50.810;8.342;2023-04-26T14:24:08;12.30;79.70
5806;DHT22;2929;50.810;8.342;2023-04-26T14:26:35;12.60;81.60
5806;DHT22;2929;50.810;8.342;2023-04-26T14:29:03;12.90;79.20
5806;DHT22;2929;50.810;8.342;2023-04-26T14:31:31;12.70;82.10
5806;DHT22;2929;50.810;8.342;2023-04-26T14:34:01;12.60;84.80
5806;DHT22;2929;50.810;8.342;2023-04-26T14:36:28;12.80;82.70
5806;DHT22;2929;50.810;8.342;2023-04-26T14:38:56;12.90;80.20
5806;DHT22;2929;50.810;8.342;2023-04-26T14:41:24;13.20;82.20
5806;DHT22;2929;50.810;8.342;2023-04-26T14:43:51;13.50;82.30
5806;DHT22;2929;50.810;8.342;2023-04-26T14:46:18;13.50;84.90
5806;DHT22;2929;50.810;8.342;2023-04-26T14:48:45;14.20;80.30
5806;DHT22;2929;50.810;8.342;2023-04-26T14:51:14;14.30;77.60
5806;DHT22;2929;50.810;8.342;2023-04-26T14:53:41;14.50;76.70
5806;DHT22;2929;50.810;8.342;2023-04-26T14:56:08;14.10;77.70
5806;DHT22;2929;50.810;8.342;2023-04-26T14:58:35;14.10;80.20
5806;DHT22;2929;50.810;8.342;2023-04-26T15:01:02;14.20;76.60
5806;DHT22;2929;50.810;8.342;2023-04-26T15:03:30;14.50;76.60
5806;DHT22;2929;50.810;8.342;2023-04-26T15:05:58;14.90;75.60
5806;DHT22;2929;50.810;8.342;2023-04-26T15:08:26;14.40;70.70
5806;DHT22;2929;50.810;8.342;2023-04-26T15:10:55;14.70;76.80
5806;DHT22;2929;50.810;8.342;2023-04-26T15:13:22;14.60;74.00
5806;DHT22;2929;50.810;8.342;2023-04-26T15:15:49;14.20;73.80
5806;DHT22;2929;50.810;8.342;2023-04-26T15:18:17;14.10;77.20
5806;DHT22;2929;50.810;8.342;2023-04-26T15:20:44;14.20;73.70
5806;DHT22;2929;50.810;8.342;2023-04-26T15:23:12;14.70;74.90
5806;DHT22;2929;50.810;8.342;2023-04-26T15:25:40;14.10;74.70
5806;DHT22;2929;50.810;8.342;2023-04-26T15:28:07;13.90;75.50
5806;DHT22;2929;50.810;8.342;2023-04-26T15:30:34;14.00;77.30
5806;DHT22;2929;50.810;8.342;2023-04-26T15:33:02;13.70;78.10
5806;DHT22;2929;50.810;8.342;2023-04-26T15:35:32;13.50;76.30
5806;DHT22;2929;50.810;8.342;2023-04-26T15:37:59;13.20;79.70
5806;DHT22;2929;50.810;8.342;2023-04-26T15:40:27;13.10;77.20
5806;DHT22;2929;50.810;8.342;2023-04-26T15:42:55;12.80;77.30
5806;DHT22;2929;50.810;8.342;2023-04-26T15:45:22;12.60;78.40
5806;DHT22;2929;50.810;8.342;2023-04-26T15:47:50;12.80;79.40
5806;DHT22;2929;50.810;8.342;2023-04-26T15:50:17;13.00;81.70
5806;DHT22;2929;50.810;8.342;2023-04-26T15:52:44;13.30;78.80
5806;DHT22;2929;50.810;8.342;2023-04-26T15:55:12;13.70;78.30
5806;DHT22;2929;50.810;8.342;2023-04-26T15:57:40;14.20;77.70
5806;DHT22;2929;50.810;8.342;2023-04-26T16:00:10;13.50;78.20
5806;DHT22;2929;50.810;8.342;2023-04-26T16:02:39;12.90;77.40
5806;DHT22;2929;50.810;8.342;2023-04-26T16:05:07;12.90;77.00
5806;DHT22;2929;50.810;8.342;2023-04-26T16:07:34;12.90;77.50
5806;DHT22;2929;50.810;8.342;2023-04-26T16:10:04;13.10;76.30
5806;DHT22;2929;50.810;8.342;2023-04-26T16:12:31;13.00;79.50
5806;DHT22;2929;50.810;8.342;2023-04-26T16:14:58;13.10;77.50
5806;DHT22;2929;50.810;8.342;2023-04-26T16:17:27;13.00;76.80
5806;DHT22;2929;50.810;8.342;2023-04-26T16:19:56;13.60;76.70